TDPD

Melville Hall Airport

Marigot, Dominica
METAR TDPD 190200Z 12010G20KT 9999E 3000W -SHRA BKN015 BKN034 26/23 Q1016
Observed Flight Rules
Nov-19 @ 02:00 UTC (2 hours ago) Marginal Visual Flight Rules
Wind Visibility Clouds Conditions
120° at 10 knots
 Gusting to 20 knots
10,000+ meters
  • Broken at 1,500' AGL
  • Broken at 3,400' AGL
  • Light Rain
Temperatures Readings
Current 26°C / 79°F
Dewpoint 23°C / 73°F
Humidity 84%
Altimeter 30" Hg
Pressure 1016 hPa
Elevation 14
METAR TDPD 190200Z 12010G20KT 9999E 3000W -SHRA BKN015 BKN034 26/23 Q1016
Observed Flight Rules
Nov-19 @ 02:00 UTC
(2 hours ago)
MVFR
Wind Visibility
120° at 10 knots
 Gusting to 20 knots
10,000+ meters
Clouds
  • Broken at 1,500' AGL
  • Broken at 3,400' AGL
Conditions
  • Light Rain
Temperature Dewpoint
26°C / 79°F 23°C / 73°F
Humidity Altimeter Pressure
84% 30" Hg 1016 hPa